• Join FlightAware (Why Join?)
  • Login
  • US Flag 
08:31AM EDT


 

Airport Tracker/Info


-or-


 

Live Flight TrackerFlight Track Log ✈ SKW2979 ✈ 02-May-2012 ✈ KPHX - KPSP

Flight Track Log - Related Links

Times and Time Zones

All times are in EDT time to prevent confusion due to time zone crossing. See the SKW2979 flight status page for this flight to view local times or setup timezone preferences in your user account.

Time Position Orientation Groundspeed Altitude Reporting Facility
EDT Latitude Longitude Course Direction KTS MPH feet Rate Location/Type
10:10PM 33.4333 -112.0333 231° Southwest 150 173 1,800  Level Phoenix TRACON
10:11PM 33.4000 -112.0833 257° West 211 243 3,500 1,980 Climbing Phoenix TRACON
10:12PM 33.3833 -112.1667 246° West 247 284 5,800 2,100 Climbing Phoenix TRACON
10:13PM 33.3661 -112.2139 277° West 285 328 7,300 2,280 Climbing Albuquerque Center
10:14PM 33.3764 -112.3164 282° West 279 321 9,900 2,340 Climbing Albuquerque Center
10:15PM 33.3933 -112.4144 280° West 286 329 12,000 1,800 Climbing Albuquerque Center
10:16PM 33.4094 -112.5272 279° West 307 353 13,500 1,500 Climbing Albuquerque Center
10:17PM 33.4253 -112.6425 281° West 339 390 15,100 1,620 Climbing Albuquerque Center
10:18PM 33.4450 -112.7608 281° West 361 415 16,800 1,620 Climbing Albuquerque Center
10:19PM 33.4644 -112.8814 283° West 366 421 18,400 1,380 Climbing Albuquerque Center
10:20PM 33.4881 -113.0025 283° West 371 427 19,600 1,200 Climbing Albuquerque Center
10:21PM 33.5114 -113.1261 283° West 382 440 20,900 1,080 Climbing Albuquerque Center
10:23PM 33.5603 -113.3867 281° West 397 457 23,000 1,020 Climbing Los Angeles Center
10:24PM 33.5819 -113.5156 284° West 402 463 24,000 900 Climbing Los Angeles Center
10:25PM 33.6097 -113.6494 282° West 408 470 24,800 840 Climbing Los Angeles Center
10:26PM 33.6333 -113.7811 282° West 408 470 25,700 600 Climbing Los Angeles Center
10:27PM 33.6567 -113.9178 283° West 413 475 26,000 120 Climbing Los Angeles Center
10:28PM 33.6819 -114.0542 283° West 418 481 26,000  Level Los Angeles Center
10:29PM 33.7094 -114.1983 282° West 423 487 26,000 -300 Level Los Angeles Center
10:30PM 33.7344 -114.3378 283° West 428 493 25,400 -900 Descending Los Angeles Center
10:31PM 33.7617 -114.4847 278° West 439 505 24,300 -1,080 Descending Los Angeles Center
10:32PM 33.7781 -114.6317 274° West 450 518 23,300 -1,020 Descending Los Angeles Center
10:33PM 33.7861 -114.7842 277° West 455 524 22,300 -1,080 Descending Los Angeles Center
10:34PM 33.8000 -114.9289 277° West 455 524 21,200 -1,320 Descending Los Angeles Center
10:35PM 33.8139 -115.0711 282° West 445 512 19,700 -1,620 Descending Los Angeles Center
10:36PM 33.8381 -115.2058 273° West 439 505 18,000 -1,620 Descending Los Angeles Center
10:37PM 33.8431 -115.3333 277° West 427 491 16,500 -1,500 Descending Los Angeles Center
10:38PM 33.8564 -115.4658 277° West 416 479 15,000 -1,500 Descending Los Angeles Center
10:39PM 33.8694 -115.5958 277° West 406 467 13,600 -1,380 Descending Los Angeles Center
10:40PM 33.8825 -115.7183 275° West 391 450 12,300 -1,320 Descending Los Angeles Center
10:41PM 33.8911 -115.8333 258° West 368 423 11,000 -1,200 Descending Los Angeles Center
10:42PM 33.8725 -115.9361 256° West 332 382 9,900 -1,500 Descending Los Angeles Center
10:43PM 33.8539 -116.0261 254° West 312 359 8,100 -1,500 Descending Los Angeles Center
10:44PM 33.8331 -116.1111 252° West 283 326 6,900 -1,020 Descending Los Angeles Center
10:45PM 33.8122 -116.1886 251° West 266 306 6,100 -720 Descending Los Angeles Center
10:46PM 33.7869 -116.2761 244° Southwest 257 296 5,500 -1,140 Descending Los Angeles Center
10:48PM 33.7500 -116.3667 270° West 180 207 3,100 -1,200 Descending Southern California TRACON
10:49PM 33.7500 -116.4167 309° West 179 206 2,300 -900 Descending Southern California TRACON
10:50PM 33.7833 -116.4667 320° Northwest 156 180 1,300 -840 Descending Southern California TRACON
10:51PM 33.8167 -116.5000 320° Northwest 130 150 700 -720 Descending Southern California TRACON